Time;durP1;ratioP1;P1;durP2;ratioP2;P2;SDS_P1;SDS_P2;PMS_P1;PMS_P2;Temp;Humidity;BMP_temperature;BMP_pressure;BME280_temperature;BME280_humidity;BME280_pressure;Samples;Min_cycle;Max_cycle;Signal;HPM_P1;HPM_P2
2021/12/06 00:01:42;;;;;;;42.42;19.75;;;2.50;99.90;;;;;;4841348;29;20406;-81
2021/12/06 00:04:22;;;;;;;41.08;19.20;;;2.50;99.90;;;;;;4842634;29;20121;-81
2021/12/06 00:06:54;;;;;;;35.25;17.80;;;2.50;99.90;;;;;;4842433;29;20385;-81
2021/12/06 00:09:23;;;;;;;37.58;19.15;;;2.50;99.90;;;;;;4842767;29;20428;-81
2021/12/06 00:11:56;;;;;;;39.03;18.15;;;2.50;99.90;;;;;;4841261;29;20490;-81
2021/12/06 00:14:27;;;;;;;38.50;16.33;;;2.50;99.90;;;;;;4845838;29;20096;-81
2021/12/06 00:16:54;;;;;;;39.20;19.10;;;2.60;99.90;;;;;;4845755;29;20089;-81
2021/12/06 00:19:19;;;;;;;37.83;19.02;;;2.60;99.90;;;;;;4844493;29;20464;-81
2021/12/06 00:21:45;;;;;;;39.28;19.02;;;2.50;99.90;;;;;;4844515;29;20526;-81
2021/12/06 00:24:11;;;;;;;43.03;18.23;;;2.60;99.90;;;;;;4845705;29;20102;-81
2021/12/06 00:26:36;;;;;;;41.63;19.48;;;2.60;99.90;;;;;;4845534;29;20049;-81
2021/12/06 00:29:02;;;;;;;44.63;20.23;;;2.60;99.90;;;;;;4844361;29;20130;-81
2021/12/06 00:31:33;;;;;;;41.42;19.60;;;2.50;99.90;;;;;;4844242;29;20046;-81
2021/12/06 00:34:03;;;;;;;43.13;20.65;;;2.50;99.90;;;;;;4844430;29;20137;-81
2021/12/06 00:36:31;;;;;;;43.67;20.80;;;2.50;99.90;;;;;;4845703;29;20460;-81
2021/12/06 00:38:59;;;;;;;43.58;19.92;;;2.50;99.90;;;;;;4844508;29;20061;-81
2021/12/06 00:41:25;;;;;;;47.67;21.42;;;2.40;99.90;;;;;;4844080;29;20479;-81
2021/12/06 00:43:51;;;;;;;40.90;19.77;;;2.30;99.90;;;;;;4844285;29;20073;-81
2021/12/06 00:46:17;;;;;;;52.08;22.90;;;2.30;99.90;;;;;;4844440;29;20482;-81
2021/12/06 00:48:43;;;;;;;40.67;20.48;;;2.30;99.90;;;;;;4844050;29;20050;-81
2021/12/06 00:51:11;;;;;;;41.92;20.83;;;2.30;99.90;;;;;;4843845;29;20054;-81
2021/12/06 00:53:37;;;;;;;43.97;21.70;;;2.30;99.90;;;;;;4844171;29;20054;-81
2021/12/06 00:56:03;;;;;;;48.45;21.40;;;2.10;99.90;;;;;;4844234;29;20050;-81
2021/12/06 00:58:29;;;;;;;49.17;23.95;;;2.10;99.90;;;;;;4845218;29;20041;-81
2021/12/06 01:00:55;;;;;;;48.45;23.23;;;2.10;99.90;;;;;;4844005;29;20061;-81
2021/12/06 01:03:25;;;;;;;47.55;22.55;;;2.00;99.90;;;;;;4845004;29;20098;-81
2021/12/06 01:05:51;;;;;;;49.03;24.23;;;2.00;99.90;;;;;;4843996;29;20053;-81
2021/12/06 01:08:18;;;;;;;51.20;23.40;;;1.90;99.90;;;;;;4845023;29;20046;-81
2021/12/06 01:10:44;;;;;;;50.92;23.30;;;1.90;99.90;;;;;;4843701;29;20053;-81
2021/12/06 01:13:10;;;;;;;46.60;21.92;;;1.90;99.90;;;;;;4843508;29;20053;-81
2021/12/06 01:15:38;;;;;;;52.53;24.45;;;1.90;99.90;;;;;;4843707;29;20054;-81
2021/12/06 01:18:07;;;;;;;53.28;24.60;;;1.90;99.90;;;;;;4844658;29;20510;-81
2021/12/06 01:20:41;;;;;;;48.60;22.42;;;1.90;99.90;;;;;;4843809;29;20041;-81
2021/12/06 01:23:11;;;;;;;53.90;23.80;;;1.90;99.90;;;;;;4844724;29;20049;-81
2021/12/06 01:31:00;;;;;;;52.83;22.60;;;1.90;99.90;;;;;;4843559;29;20053;-81
2021/12/06 01:41:38;;;;;;;39.03;18.13;;;2.00;99.90;;;;;;4843233;29;20065;-81
2021/12/06 01:44:16;;;;;;;42.05;19.35;;;1.90;99.90;;;;;;4843152;29;20065;-81
2021/12/06 01:47:05;;;;;;;49.17;20.55;;;2.00;99.90;;;;;;4842916;29;20082;-81
2021/12/06 01:49:35;;;;;;;43.50;20.45;;;2.00;99.90;;;;;;4843318;29;20049;-81
2021/12/06 01:52:11;;;;;;;42.85;18.98;;;2.00;99.90;;;;;;4844229;29;20042;-81
2021/12/06 01:54:37;;;;;;;43.60;20.73;;;2.10;99.90;;;;;;4844166;29;20103;-81
2021/12/06 01:57:03;;;;;;;46.90;20.95;;;2.10;99.90;;;;;;4844151;29;20037;-81
2021/12/06 01:59:29;;;;;;;49.05;21.42;;;2.10;99.90;;;;;;4843984;29;20052;-81
2021/12/06 02:01:55;;;;;;;50.88;21.17;;;2.10;99.90;;;;;;4842703;29;20054;-81
2021/12/06 02:04:22;;;;;;;55.35;23.15;;;2.10;99.90;;;;;;4843979;29;20050;-81
2021/12/06 02:06:48;;;;;;;53.22;23.65;;;2.10;99.90;;;;;;4843954;29;20207;-81
2021/12/06 02:09:18;;;;;;;59.00;24.85;;;2.10;99.90;;;;;;4842800;29;20465;-81
2021/12/06 02:11:46;;;;;;;57.58;23.88;;;2.10;99.90;;;;;;4844287;29;20064;-81
2021/12/06 02:19:32;;;;;;;59.50;24.60;;;2.10;99.90;;;;;;4843708;29;20123;-82
2021/12/06 02:21:59;;;;;;;54.92;23.25;;;2.10;99.90;;;;;;4843601;29;20517;-81
2021/12/06 02:24:26;;;;;;;53.05;24.02;;;2.10;99.90;;;;;;4843670;29;20061;-81
2021/12/06 02:26:53;;;;;;;60.05;24.88;;;2.10;99.90;;;;;;4843549;29;20053;-81
2021/12/06 02:29:19;;;;;;;52.03;24.15;;;2.10;99.90;;;;;;4842381;29;20061;-81
2021/12/06 02:31:46;;;;;;;55.42;24.63;;;2.10;99.90;;;;;;4842351;29;20545;-81
2021/12/06 02:34:12;;;;;;;53.65;22.55;;;2.10;99.90;;;;;;4842480;29;20077;-81
2021/12/06 02:36:37;;;;;;;58.90;24.58;;;2.10;99.90;;;;;;4842490;29;20046;-81
2021/12/06 02:39:08;;;;;;;57.03;23.92;;;2.10;99.90;;;;;;4843428;29;20406;-81
2021/12/06 02:41:34;;;;;;;56.85;24.75;;;2.10;99.90;;;;;;4843107;29;20069;-81
2021/12/06 02:44:00;;;;;;;57.92;23.15;;;2.10;99.90;;;;;;4843371;29;20046;-81
2021/12/06 02:46:26;;;;;;;55.35;21.95;;;2.10;99.90;;;;;;4827188;29;20072;-81
2021/12/06 02:48:52;;;;;;;54.92;24.63;;;2.10;99.90;;;;;;4826753;29;20506;-81
2021/12/06 02:51:19;;;;;;;53.45;24.48;;;2.10;99.90;;;;;;4843074;29;20042;-81
2021/12/06 02:53:46;;;;;;;51.67;23.17;;;2.10;99.90;;;;;;4827093;29;20218;-81
2021/12/06 02:56:34;;;;;;;57.47;23.67;;;2.10;99.90;;;;;;4843027;29;20432;-81
2021/12/06 02:59:05;;;;;;;50.35;23.48;;;2.10;99.90;;;;;;4826875;29;20057;-81
2021/12/06 03:01:52;;;;;;;61.20;25.23;;;2.10;99.90;;;;;;4827026;29;20049;-81
2021/12/06 03:04:18;;;;;;;56.55;22.17;;;2.10;99.90;;;;;;4843127;29;20121;-81
2021/12/06 03:06:44;;;;;;;55.80;23.73;;;2.10;99.90;;;;;;4826963;29;20057;-81
2021/12/06 03:09:13;;;;;;;54.08;23.30;;;2.10;99.90;;;;;;4843000;29;20045;-81
2021/12/06 03:12:18;;;;;;;57.05;24.35;;;2.10;99.90;;;;;;4826731;29;20056;-81
2021/12/06 03:14:52;;;;;;;62.38;23.88;;;2.20;99.90;;;;;;4826664;29;20066;-81
2021/12/06 03:17:20;;;;;;;59.25;24.45;;;2.20;99.90;;;;;;4826888;29;20054;-81
2021/12/06 03:19:46;;;;;;;65.03;25.83;;;2.20;99.90;;;;;;4826543;29;20061;-81
2021/12/06 03:22:14;;;;;;;65.13;27.17;;;2.20;99.90;;;;;;4842950;29;20057;-81
2021/12/06 03:24:41;;;;;;;57.10;23.48;;;2.20;99.90;;;;;;4826673;29;20108;-81
2021/12/06 03:27:07;;;;;;;66.50;24.92;;;2.20;99.90;;;;;;4826702;29;20045;-81
2021/12/06 03:29:34;;;;;;;68.28;27.95;;;2.20;99.90;;;;;;4826461;29;20407;-81
2021/12/06 03:32:00;;;;;;;68.50;29.38;;;2.20;99.90;;;;;;4826518;29;20086;-81
2021/12/06 03:34:26;;;;;;;66.47;27.27;;;2.20;99.90;;;;;;4826576;29;20057;-81
2021/12/06 03:36:57;;;;;;;65.72;26.40;;;2.20;99.90;;;;;;4842577;29;20489;-81
2021/12/06 03:39:26;;;;;;;70.07;25.80;;;2.20;99.90;;;;;;4826590;29;20114;-81
2021/12/06 03:41:56;;;;;;;62.90;26.35;;;2.20;99.90;;;;;;4842572;29;20175;-82
2021/12/06 03:44:21;;;;;;;66.82;26.48;;;2.30;99.90;;;;;;4826357;29;20060;-81
2021/12/06 03:46:50;;;;;;;66.65;27.50;;;2.30;99.90;;;;;;4826534;29;20050;-81
2021/12/06 03:49:17;;;;;;;64.53;25.40;;;2.20;99.90;;;;;;4845956;29;20050;-81
2021/12/06 03:51:45;;;;;;;61.97;25.60;;;2.30;99.90;;;;;;4846374;29;20038;-82
2021/12/06 03:54:14;;;;;;;63.20;25.40;;;2.20;99.90;;;;;;4829747;29;20118;-81
2021/12/06 03:56:41;;;;;;;61.85;26.75;;;2.30;99.90;;;;;;4846364;29;20498;-81
2021/12/06 03:59:07;;;;;;;70.60;27.00;;;2.30;99.90;;;;;;4829650;29;20054;-81
2021/12/06 04:01:33;;;;;;;67.93;29.27;;;2.30;99.90;;;;;;4829222;29;20115;-81
2021/12/06 04:04:02;;;;;;;73.47;27.42;;;2.30;99.90;;;;;;4829310;29;20052;-82
2021/12/06 04:06:28;;;;;;;69.57;28.35;;;2.30;99.90;;;;;;4829336;29;20501;-81
2021/12/06 04:08:54;;;;;;;68.55;26.33;;;2.30;99.90;;;;;;4845947;29;20054;-81
2021/12/06 04:11:20;;;;;;;73.30;28.58;;;2.30;99.90;;;;;;4829707;29;20046;-81
2021/12/06 04:13:46;;;;;;;66.93;25.83;;;2.30;99.90;;;;;;4829254;29;20490;-81
2021/12/06 04:16:11;;;;;;;65.30;25.95;;;2.30;99.90;;;;;;4829588;29;20137;-81
2021/12/06 04:18:37;;;;;;;72.10;27.55;;;2.30;99.90;;;;;;4829428;29;20432;-81
2021/12/06 04:21:04;;;;;;;67.53;27.20;;;2.30;99.90;;;;;;4845634;29;20050;-81
2021/12/06 04:23:32;;;;;;;70.05;27.33;;;2.30;99.90;;;;;;4829377;29;20486;-81
2021/12/06 04:25:58;;;;;;;70.35;27.60;;;2.30;99.90;;;;;;4829272;29;20050;-81
2021/12/06 04:28:24;;;;;;;67.70;26.67;;;2.30;99.90;;;;;;4845684;29;20049;-81
2021/12/06 04:30:50;;;;;;;67.82;25.65;;;2.20;99.90;;;;;;4845678;29;20182;-81
2021/12/06 04:33:16;;;;;;;72.38;26.98;;;2.30;99.90;;;;;;4845463;29;20049;-81
2021/12/06 04:35:43;;;;;;;75.25;27.15;;;2.30;99.90;;;;;;4845513;29;20502;-81
2021/12/06 04:38:09;;;;;;;71.53;27.98;;;2.30;99.90;;;;;;4845365;29;20042;-81
2021/12/06 04:40:36;;;;;;;68.80;26.92;;;2.30;99.90;;;;;;4845511;29;20613;-81
2021/12/06 04:43:02;;;;;;;68.03;26.08;;;2.30;99.90;;;;;;4845287;29;20109;-81
2021/12/06 04:45:29;;;;;;;66.35;26.25;;;2.30;99.90;;;;;;4828834;29;20553;-81
2021/12/06 04:47:55;;;;;;;64.10;25.50;;;2.30;99.90;;;;;;4845157;29;20407;-81
2021/12/06 04:50:25;;;;;;;70.93;26.65;;;2.30;99.90;;;;;;4828906;29;20049;-81
2021/12/06 04:52:53;;;;;;;68.82;26.67;;;2.30;99.90;;;;;;4828933;29;20050;-81
2021/12/06 04:55:34;;;;;;;70.60;26.45;;;2.30;99.90;;;;;;4828724;29;20132;-81
2021/12/06 04:58:01;;;;;;;64.20;25.45;;;2.30;99.90;;;;;;4828801;29;20114;-81
2021/12/06 05:00:32;;;;;;;66.55;24.70;;;2.30;99.90;;;;;;4827567;29;20053;-81
2021/12/06 05:02:59;;;;;;;63.33;27.02;;;2.40;99.90;;;;;;4828759;29;20049;-81
2021/12/06 05:05:43;;;;;;;72.70;27.65;;;2.30;99.90;;;;;;4828494;29;20135;-82
2021/12/06 05:08:19;;;;;;;69.13;24.88;;;2.40;99.90;;;;;;4845016;29;20054;-82
2021/12/06 05:10:45;;;;;;;65.53;25.38;;;2.30;99.90;;;;;;4844716;29;20520;-82
2021/12/06 05:13:12;;;;;;;67.60;26.70;;;2.40;99.90;;;;;;4844804;29;20526;-81
2021/12/06 05:15:38;;;;;;;69.22;26.52;;;2.40;99.90;;;;;;4828340;29;20054;-82
2021/12/06 05:18:04;;;;;;;65.43;25.25;;;2.30;99.90;;;;;;4828371;29;20050;-81
2021/12/06 05:20:30;;;;;;;73.85;27.88;;;2.30;99.90;;;;;;4828314;29;20517;-81
2021/12/06 05:22:56;;;;;;;74.25;25.85;;;2.30;99.90;;;;;;4828502;29;20129;-81
2021/12/06 05:25:23;;;;;;;70.25;26.58;;;2.30;99.90;;;;;;4828020;29;20402;-81
2021/12/06 05:27:50;;;;;;;71.97;26.73;;;2.30;99.90;;;;;;4828354;29;20133;-81
2021/12/06 05:30:19;;;;;;;73.53;27.30;;;2.20;99.90;;;;;;4828321;29;20054;-81
2021/12/06 05:32:45;;;;;;;65.93;25.98;;;2.30;99.90;;;;;;4828141;29;20050;-81
2021/12/06 05:35:11;;;;;;;73.03;26.92;;;2.30;99.90;;;;;;4828065;29;20061;-81
2021/12/06 05:37:43;;;;;;;74.72;26.55;;;2.30;99.90;;;;;;4844523;29;20107;-81
2021/12/06 05:40:13;;;;;;;68.68;25.20;;;2.30;99.90;;;;;;4828446;29;20061;-81
2021/12/06 05:42:39;;;;;;;88.75;30.02;;;2.30;99.90;;;;;;4838650;29;20406;-81
2021/12/06 05:45:07;;;;;;;72.55;26.95;;;2.30;99.90;;;;;;4843417;29;20065;-81
2021/12/06 05:47:32;;;;;;;66.80;24.45;;;2.20;99.90;;;;;;4844304;29;20053;-81
2021/12/06 05:49:59;;;;;;;68.63;24.30;;;2.20;99.90;;;;;;4844330;29;20050;-81
2021/12/06 05:52:25;;;;;;;73.03;27.17;;;2.20;99.90;;;;;;4843974;29;20050;-81
2021/12/06 05:54:51;;;;;;;65.20;24.60;;;2.20;99.90;;;;;;4842856;29;20085;-81
2021/12/06 05:57:17;;;;;;;73.25;25.38;;;2.20;99.90;;;;;;4842904;29;20081;-81
2021/12/06 05:59:44;;;;;;;71.78;25.10;;;2.20;99.90;;;;;;4842892;29;20046;-81
2021/12/06 06:02:11;;;;;;;70.65;26.05;;;2.20;99.90;;;;;;4843111;29;20105;-81
2021/12/06 06:04:37;;;;;;;80.43;26.55;;;2.20;99.90;;;;;;4842892;29;20050;-81
2021/12/06 06:07:04;;;;;;;71.20;25.13;;;2.20;99.90;;;;;;4842585;29;20057;-81
2021/12/06 06:09:29;;;;;;;75.60;27.88;;;2.20;99.90;;;;;;4842592;29;20410;-81
2021/12/06 06:11:55;;;;;;;78.25;26.92;;;2.20;99.90;;;;;;4842699;29;20509;-81
2021/12/06 06:14:21;;;;;;;84.63;27.55;;;2.20;99.90;;;;;;4842554;29;20117;-81
2021/12/06 06:16:50;;;;;;;78.05;26.98;;;2.20;99.90;;;;;;4842837;29;20136;-81
2021/12/06 06:19:18;;;;;;;70.70;22.98;;;2.10;99.90;;;;;;4842369;29;20057;-81
2021/12/06 06:21:44;;;;;;;86.40;26.45;;;2.20;99.90;;;;;;4842828;29;20045;-81
2021/12/06 06:24:10;;;;;;;80.10;29.70;;;2.20;99.90;;;;;;4843533;29;20539;-81
2021/12/06 06:26:35;;;;;;;78.47;26.95;;;2.20;99.90;;;;;;4843677;29;20054;-81
2021/12/06 06:29:01;;;;;;;83.63;26.60;;;2.10;99.90;;;;;;4843651;29;20042;-81
2021/12/06 06:31:27;;;;;;;100.72;29.63;;;2.20;99.90;;;;;;4842547;29;20046;-81
2021/12/06 06:33:53;;;;;;;79.60;25.67;;;2.20;99.90;;;;;;4842112;29;20049;-81
2021/12/06 06:36:19;;;;;;;76.25;27.40;;;2.20;99.90;;;;;;4843307;29;20062;-81
2021/12/06 06:38:44;;;;;;;82.90;27.63;;;2.20;99.90;;;;;;4842157;29;20082;-81
2021/12/06 06:41:10;;;;;;;82.75;26.90;;;2.20;99.90;;;;;;4842146;29;20070;-81
2021/12/06 06:43:37;;;;;;;83.78;28.70;;;2.20;99.90;;;;;;4827043;29;20057;-81
2021/12/06 06:46:04;;;;;;;87.32;29.77;;;2.20;99.90;;;;;;4827246;29;20054;-81
2021/12/06 06:48:30;;;;;;;78.90;28.63;;;2.20;99.90;;;;;;4843369;29;20106;-81
2021/12/06 06:50:56;;;;;;;87.85;28.27;;;2.20;99.90;;;;;;4843270;29;20041;-81
2021/12/06 06:53:21;;;;;;;73.20;24.00;;;2.20;99.90;;;;;;4843213;29;20440;-81
2021/12/06 06:55:47;;;;;;;81.63;25.88;;;2.20;99.90;;;;;;4826806;29;20144;-81
2021/12/06 06:58:13;;;;;;;86.25;28.63;;;2.20;99.90;;;;;;4827039;29;20049;-81
2021/12/06 07:00:39;;;;;;;80.53;28.23;;;2.20;99.90;;;;;;4826827;29;20612;-81
2021/12/06 07:03:07;;;;;;;90.35;29.23;;;2.20;99.90;;;;;;4826927;29;20081;-81
2021/12/06 07:05:33;;;;;;;97.97;30.08;;;2.20;99.90;;;;;;4843240;29;20069;-81
2021/12/06 07:07:59;;;;;;;92.50;27.30;;;2.20;99.90;;;;;;4842971;29;20097;-81
2021/12/06 07:10:25;;;;;;;90.45;31.13;;;2.20;99.90;;;;;;4826613;29;20140;-81
2021/12/06 07:12:52;;;;;;;89.43;27.35;;;2.20;99.90;;;;;;4826722;29;20050;-81
2021/12/06 07:15:24;;;;;;;89.25;28.02;;;2.30;99.90;;;;;;4826470;29;20061;-81
2021/12/06 07:17:51;;;;;;;91.65;30.25;;;2.20;99.90;;;;;;4826665;29;20129;-81
2021/12/06 07:20:18;;;;;;;89.57;29.08;;;2.20;99.90;;;;;;4843009;29;20050;-81
2021/12/06 07:22:45;;;;;;;96.00;30.60;;;2.20;99.90;;;;;;4829256;29;20526;-81
2021/12/06 07:25:13;;;;;;;89.03;28.35;;;2.20;99.90;;;;;;4832804;29;20109;-81
2021/12/06 07:27:39;;;;;;;93.47;27.50;;;2.20;99.90;;;;;;4849028;29;20042;-81
2021/12/06 07:30:06;;;;;;;89.57;28.13;;;2.20;99.90;;;;;;4832506;29;20072;-81
2021/12/06 07:32:31;;;;;;;79.45;25.88;;;2.20;99.90;;;;;;4832597;29;20046;-81
2021/12/06 07:34:57;;;;;;;89.65;28.70;;;2.20;99.90;;;;;;4832175;29;20045;-81
2021/12/06 07:37:23;;;;;;;81.10;27.70;;;2.30;99.90;;;;;;4832498;29;20058;-81
2021/12/06 07:39:48;;;;;;;85.50;26.45;;;2.20;99.90;;;;;;4832439;29;20038;-81
2021/12/06 07:42:14;;;;;;;89.03;27.88;;;2.20;99.90;;;;;;4839853;29;20061;-81
2021/12/06 07:44:41;;;;;;;90.53;28.65;;;2.30;99.90;;;;;;4847513;29;20053;-81
2021/12/06 07:47:09;;;;;;;97.78;29.95;;;2.30;99.90;;;;;;4847356;29;20376;-81
2021/12/06 07:49:37;;;;;;;94.20;29.58;;;2.30;99.90;;;;;;4847243;29;20562;-81
2021/12/06 07:52:04;;;;;;;83.95;25.42;;;2.30;99.90;;;;;;4847716;29;20096;-81
2021/12/06 07:54:30;;;;;;;91.20;27.27;;;2.30;99.90;;;;;;4847338;29;20085;-81
2021/12/06 07:56:56;;;;;;;93.60;28.23;;;2.30;99.90;;;;;;4846209;29;20045;-81
2021/12/06 07:59:22;;;;;;;82.93;29.38;;;2.30;99.90;;;;;;4846230;29;20203;-81
2021/12/06 08:01:48;;;;;;;82.95;26.80;;;2.30;99.90;;;;;;4846048;29;20046;-81
2021/12/06 08:04:14;;;;;;;85.20;30.55;;;2.30;99.90;;;;;;4846060;29;20050;-81
2021/12/06 08:06:40;;;;;;;89.97;28.92;;;2.30;99.90;;;;;;4847412;29;20514;-81
2021/12/06 08:09:06;;;;;;;103.90;32.45;;;2.40;99.90;;;;;;4847229;29;20084;-82
2021/12/06 08:11:32;;;;;;;87.78;30.35;;;2.40;99.90;;;;;;4848281;29;20053;-82
2021/12/06 08:13:58;;;;;;;82.40;30.38;;;2.40;99.90;;;;;;4847104;29;20054;-82
2021/12/06 08:16:28;;;;;;;98.70;29.98;;;2.40;99.90;;;;;;4847545;29;20052;-82
2021/12/06 08:18:53;;;;;;;93.88;29.98;;;2.40;99.90;;;;;;4847692;29;20050;-82
2021/12/06 08:21:21;;;;;;;86.72;27.60;;;2.40;99.90;;;;;;4847266;29;20076;-82
2021/12/06 08:23:50;;;;;;;103.15;31.05;;;2.40;99.90;;;;;;4847221;29;20053;-82
2021/12/06 08:26:19;;;;;;;95.68;28.88;;;2.40;99.90;;;;;;4847045;29;20050;-82
2021/12/06 08:28:47;;;;;;;86.80;27.73;;;2.40;99.90;;;;;;4848202;29;20061;-82
2021/12/06 08:31:13;;;;;;;87.32;27.65;;;2.40;99.90;;;;;;4848240;29;20407;-82
2021/12/06 08:33:40;;;;;;;87.05;26.13;;;2.40;99.90;;;;;;4847458;29;20073;-82
2021/12/06 08:36:08;;;;;;;92.38;26.25;;;2.40;99.90;;;;;;4843971;29;20129;-81
2021/12/06 08:38:35;;;;;;;85.15;27.45;;;2.40;99.90;;;;;;4845216;29;20498;-81
2021/12/06 08:41:05;;;;;;;84.13;26.85;;;2.40;99.90;;;;;;4845111;29;20073;-82
2021/12/06 08:43:31;;;;;;;74.35;24.73;;;2.40;99.90;;;;;;4844239;29;20050;-83
2021/12/06 08:46:00;;;;;;;82.97;26.73;;;2.40;99.90;;;;;;4828753;29;20053;-84
2021/12/06 08:48:29;;;;;;;84.75;26.55;;;2.40;99.90;;;;;;4845275;29;20073;-82
2021/12/06 08:50:59;;;;;;;77.18;26.02;;;2.50;99.90;;;;;;4828818;29;20065;-82
2021/12/06 08:53:25;;;;;;;82.13;27.45;;;2.50;99.90;;;;;;4828423;29;20136;-84
2021/12/06 08:55:51;;;;;;;89.25;26.90;;;2.50;99.90;;;;;;4828542;29;20140;-82
2021/12/06 08:58:17;;;;;;;98.72;28.25;;;2.50;99.90;;;;;;4844892;29;20110;-83
2021/12/06 09:01:03;;;;;;;92.57;28.05;;;2.50;99.90;;;;;;4845030;29;20046;-82
2021/12/06 09:03:30;;;;;;;84.15;28.33;;;2.50;99.90;;;;;;4837810;29;20058;-81
2021/12/06 09:05:58;;;;;;;85.85;27.17;;;2.50;99.90;;;;;;4810359;29;20054;-81
2021/12/06 09:08:24;;;;;;;88.80;30.35;;;2.50;99.90;;;;;;4826326;29;20116;-81
2021/12/06 09:10:52;;;;;;;91.25;29.40;;;2.50;99.90;;;;;;4809921;29;20046;-81
2021/12/06 09:13:24;;;;;;;91.93;27.92;;;2.60;99.90;;;;;;4810152;29;20137;-81
2021/12/06 09:15:51;;;;;;;84.18;27.23;;;2.50;99.90;;;;;;4809794;29;20055;-82
2021/12/06 09:18:18;;;;;;;90.82;27.98;;;2.60;99.90;;;;;;4809908;29;20093;-82
2021/12/06 09:20:48;;;;;;;80.50;24.38;;;2.60;99.90;;;;;;4826039;29;20485;-82
2021/12/06 09:23:14;;;;;;;92.53;28.08;;;2.60;99.90;;;;;;4826056;29;20130;-82
2021/12/06 09:25:43;;;;;;;95.25;28.25;;;2.60;99.90;;;;;;4826025;29;20130;-82
2021/12/06 09:28:09;;;;;;;84.25;27.27;;;2.60;99.90;;;;;;4809534;29;20501;-81
2021/12/06 09:30:36;;;;;;;89.55;28.83;;;2.60;99.90;;;;;;4809488;29;20434;-81
2021/12/06 09:33:05;;;;;;;93.55;28.88;;;2.60;99.90;;;;;;4825809;29;20046;-81
2021/12/06 09:35:32;;;;;;;94.10;28.02;;;2.60;99.90;;;;;;4809521;29;20058;-80
2021/12/06 09:37:59;;;;;;;79.97;25.52;;;2.70;99.90;;;;;;4809532;29;20061;-80
2021/12/06 09:40:28;;;;;;;91.82;28.52;;;2.70;99.90;;;;;;4809295;29;20050;-81
2021/12/06 09:42:55;;;;;;;98.30;29.80;;;2.70;99.90;;;;;;4825673;29;20050;-80
2021/12/06 09:45:26;;;;;;;103.40;30.38;;;2.70;99.90;;;;;;4809060;29;20062;-81
2021/12/06 09:47:53;;;;;;;90.25;30.58;;;2.70;99.90;;;;;;4809665;29;20051;-81
2021/12/06 09:50:24;;;;;;;96.72;29.35;;;2.70;99.90;;;;;;4809242;29;20047;-81
2021/12/06 09:52:52;;;;;;;84.07;25.23;;;2.70;99.90;;;;;;4809492;29;20050;-81
2021/12/06 09:55:19;;;;;;;94.15;26.73;;;2.70;99.90;;;;;;4825355;29;20483;-81
2021/12/06 09:57:45;;;;;;;95.80;29.00;;;2.80;99.90;;;;;;4808978;29;20046;-81
2021/12/06 10:00:22;;;;;;;89.10;28.75;;;2.80;99.90;;;;;;4809332;29;20395;-87
2021/12/06 10:02:48;;;;;;;86.95;28.08;;;2.80;99.90;;;;;;4809341;29;20469;-85
2021/12/06 10:05:14;;;;;;;78.35;27.77;;;2.80;99.90;;;;;;4808855;29;20058;-87
2021/12/06 10:07:39;;;;;;;92.10;28.95;;;2.90;99.90;;;;;;4808896;29;20504;-84
2021/12/06 10:10:11;;;;;;;84.68;25.85;;;2.90;99.90;;;;;;4808693;29;20062;-85
2021/12/06 10:12:38;;;;;;;85.32;27.20;;;2.90;99.90;;;;;;4808907;29;20054;-87
2021/12/06 10:15:05;;;;;;;83.57;26.05;;;2.90;99.90;;;;;;4808888;29;20046;-83
2021/12/06 10:17:32;;;;;;;84.47;28.38;;;2.90;99.90;;;;;;4809035;29;20065;-80
2021/12/06 10:19:59;;;;;;;94.85;29.20;;;2.90;99.90;;;;;;4835386;29;20053;-84
2021/12/06 10:22:26;;;;;;;82.68;25.30;;;3.00;99.90;;;;;;4835809;29;20064;-87
2021/12/06 10:24:55;;;;;;;80.88;24.77;;;2.90;99.90;;;;;;4841649;29;20056;-81
2021/12/06 10:27:21;;;;;;;87.75;26.40;;;3.00;99.90;;;;;;4855387;29;20057;-80
2021/12/06 10:29:59;;;;;;;79.68;26.13;;;3.00;99.90;;;;;;4846560;29;20049;-80
2021/12/06 10:32:30;;;;;;;73.85;25.50;;;3.00;99.90;;;;;;4844960;29;20045;-80
2021/12/06 10:34:59;;;;;;;72.68;27.33;;;3.00;99.90;;;;;;4861625;29;20559;-80
2021/12/06 10:37:33;;;;;;;71.95;24.77;;;3.10;99.90;;;;;;4845072;29;20075;-81
2021/12/06 10:39:59;;;;;;;70.97;23.20;;;3.10;99.90;;;;;;4860778;29;20542;-80
2021/12/06 10:42:37;;;;;;;64.45;23.60;;;3.10;99.90;;;;;;4861253;29;20061;-81
2021/12/06 10:45:15;;;;;;;72.22;24.17;;;3.10;99.90;;;;;;4861772;29;20072;-81
2021/12/06 10:47:41;;;;;;;68.63;24.33;;;3.10;99.90;;;;;;4844701;29;20097;-81
2021/12/06 10:50:16;;;;;;;66.13;22.05;;;3.10;99.90;;;;;;4845231;29;20049;-82
2021/12/06 10:52:50;;;;;;;56.85;21.73;;;3.10;99.90;;;;;;4844648;29;20053;-81
2021/12/06 10:55:17;;;;;;;56.65;20.63;;;3.20;99.90;;;;;;4844880;29;20061;-81
2021/12/06 10:58:10;;;;;;;56.55;20.17;;;3.10;99.90;;;;;;4839203;29;20410;-81
2021/12/06 11:00:55;;;;;;;69.70;22.77;;;3.10;99.90;;;;;;4826328;29;20088;-82
2021/12/06 11:03:25;;;;;;;62.15;21.80;;;3.00;99.90;;;;;;4825513;29;20417;-82
2021/12/06 11:05:59;;;;;;;68.72;24.42;;;3.00;99.90;;;;;;4825918;29;20050;-82
2021/12/06 11:08:26;;;;;;;69.90;24.50;;;3.00;99.90;;;;;;4826827;29;20141;-82
2021/12/06 11:11:04;;;;;;;62.47;23.60;;;3.00;99.90;;;;;;4826724;29;20050;-82
2021/12/06 11:13:34;;;;;;;60.58;21.48;;;3.00;99.90;;;;;;4825980;29;20092;-83
2021/12/06 11:16:24;;;;;;;62.58;23.60;;;3.00;99.90;;;;;;4826697;29;20093;-82
2021/12/06 11:19:11;;;;;;;72.65;24.15;;;3.00;99.90;;;;;;4826480;29;20050;-82
2021/12/06 11:21:39;;;;;;;57.88;21.30;;;3.00;99.90;;;;;;4826781;29;20498;-82
2021/12/06 11:24:25;;;;;;;56.17;21.05;;;3.00;99.90;;;;;;4842665;29;20569;-82
2021/12/06 11:27:01;;;;;;;64.38;22.88;;;3.00;99.90;;;;;;4826277;29;20129;-82
2021/12/06 11:29:33;;;;;;;66.70;22.95;;;3.10;99.90;;;;;;4842530;29;20512;-82
2021/12/06 11:32:07;;;;;;;62.95;22.92;;;3.00;99.90;;;;;;4826315;29;20076;-82
2021/12/06 11:34:40;;;;;;;66.95;22.83;;;3.00;99.90;;;;;;4826424;29;20057;-82
2021/12/06 11:37:25;;;;;;;58.42;23.00;;;3.00;99.90;;;;;;4842638;29;20054;-82
2021/12/06 11:40:05;;;;;;;58.80;22.52;;;3.10;99.90;;;;;;4842848;29;20098;-82
2021/12/06 11:42:32;;;;;;;66.53;23.15;;;3.10;99.90;;;;;;4842342;29;20518;-82
2021/12/06 11:44:58;;;;;;;62.88;23.33;;;3.10;99.90;;;;;;4842416;29;20499;-82
2021/12/06 11:47:24;;;;;;;64.40;25.52;;;3.10;99.90;;;;;;4842468;29;20482;-82
2021/12/06 11:49:52;;;;;;;67.22;24.52;;;3.10;99.90;;;;;;4826032;29;20118;-82
2021/12/06 11:52:24;;;;;;;70.15;25.23;;;3.20;99.90;;;;;;4825868;29;20057;-82
2021/12/06 11:54:54;;;;;;;72.40;25.55;;;3.20;99.90;;;;;;4842204;29;20119;-82
2021/12/06 11:57:29;;;;;;;69.80;25.30;;;3.20;99.90;;;;;;4826179;29;20054;-82
2021/12/06 12:00:12;;;;;;;75.85;26.98;;;3.10;99.90;;;;;;4826182;29;20097;-82
2021/12/06 12:02:43;;;;;;;79.28;27.17;;;3.10;99.90;;;;;;4842156;29;20414;-82
2021/12/06 12:05:14;;;;;;;86.43;27.40;;;3.10;99.90;;;;;;4825903;29;20510;-82
2021/12/06 12:07:59;;;;;;;69.47;24.25;;;3.00;99.90;;;;;;4825939;29;20106;-82
2021/12/06 12:10:44;;;;;;;87.13;28.98;;;3.00;99.90;;;;;;4829413;29;20049;-82
2021/12/06 12:13:24;;;;;;;79.60;26.88;;;3.10;99.90;;;;;;4829629;29;20057;-82
2021/12/06 12:15:52;;;;;;;73.00;26.40;;;3.10;99.90;;;;;;4845842;29;20132;-82
2021/12/06 12:18:19;;;;;;;71.13;26.25;;;3.10;99.90;;;;;;4829072;29;20133;-82
2021/12/06 12:20:46;;;;;;;58.88;22.55;;;3.10;99.90;;;;;;4845567;29;20096;-82
2021/12/06 12:23:12;;;;;;;70.30;23.25;;;3.10;99.90;;;;;;4829299;29;20045;-82
2021/12/06 12:25:48;;;;;;;67.40;25.63;;;3.10;99.90;;;;;;4829064;29;20053;-82
2021/12/06 12:28:21;;;;;;;64.03;24.35;;;3.20;99.90;;;;;;4829172;29;20054;-82
2021/12/06 12:30:50;;;;;;;64.03;22.85;;;3.20;99.90;;;;;;4829154;29;20050;-82
2021/12/06 12:33:19;;;;;;;68.40;23.25;;;3.20;99.90;;;;;;4829050;29;20038;-82
2021/12/06 12:35:49;;;;;;;58.83;20.92;;;3.20;99.90;;;;;;4828811;29;20050;-82
2021/12/06 12:38:23;;;;;;;60.05;21.65;;;3.20;99.90;;;;;;4828633;29;20391;-82
2021/12/06 12:40:59;;;;;;;65.28;22.58;;;3.20;99.90;;;;;;4828817;29;20483;-82
2021/12/06 12:43:33;;;;;;;62.28;24.25;;;3.20;99.90;;;;;;4828626;29;20509;-82
2021/12/06 12:46:08;;;;;;;62.78;22.98;;;3.10;99.90;;;;;;4845186;29;20486;-81
2021/12/06 12:49:03;;;;;;;70.25;23.77;;;3.20;99.90;;;;;;4828523;29;20050;-82
2021/12/06 12:51:35;;;;;;;65.65;23.20;;;3.10;99.90;;;;;;4843979;29;20454;-81
2021/12/06 12:54:27;;;;;;;65.57;24.88;;;3.10;99.90;;;;;;4828685;29;20111;-82
2021/12/06 12:57:02;;;;;;;64.47;23.42;;;3.00;99.90;;;;;;4828706;29;20049;-82
2021/12/06 12:59:42;;;;;;;69.88;28.17;;;3.10;99.90;;;;;;4845195;29;20134;-81
2021/12/06 13:02:26;;;;;;;74.38;28.00;;;3.00;99.90;;;;;;4828351;29;20451;-82
2021/12/06 13:04:58;;;;;;;81.40;28.48;;;3.00;99.90;;;;;;4828325;29;20062;-82